createdAt,value
2023-02-20T00:02:36.114Z,3.39
2023-02-20T00:07:37.835Z,3.44
2023-02-20T00:12:39.619Z,3.48
2023-02-20T00:17:43.443Z,3.53
2023-02-20T00:22:45.514Z,3.56
2023-02-20T00:27:47.909Z,3.57
2023-02-20T00:32:52.373Z,3.64
2023-02-20T00:37:58.772Z,3.69
2023-02-20T00:43:00.405Z,3.72
2023-02-20T00:48:02.316Z,3.77
2023-02-20T00:53:05.220Z,3.84
2023-02-20T00:58:06.899Z,3.89
2023-02-20T01:03:08.577Z,3.92
2023-02-20T01:08:10.240Z,3.97
2023-02-20T01:13:12.070Z,4.00
2023-02-20T01:18:13.691Z,4.06
2023-02-20T01:23:15.385Z,4.11
2023-02-20T01:28:17.699Z,4.17
2023-02-20T01:33:19.336Z,4.13
2023-02-20T01:38:21.037Z,4.16
2023-02-20T01:43:22.720Z,4.19
2023-02-20T01:48:25.926Z,4.21
2023-02-20T01:53:29.272Z,4.25
2023-02-20T01:58:37.327Z,4.26
2023-02-20T02:03:44.858Z,4.28
2023-02-20T02:08:46.712Z,4.43
2023-02-20T02:13:48.439Z,4.55
2023-02-20T02:19:12.378Z,4.75
2023-02-20T02:24:32.517Z,4.89
2023-02-20T02:29:39.447Z,5.00
2023-02-20T02:34:53.042Z,5.07
2023-02-20T02:39:57.698Z,5.19
2023-02-20T02:45:21.452Z,5.22
2023-02-20T02:50:28.399Z,5.29
2023-02-20T02:55:30.583Z,5.30
2023-02-20T03:00:52.949Z,5.35
2023-02-20T03:06:03.222Z,5.41
2023-02-20T03:11:13.041Z,5.49
2023-02-20T03:16:19.469Z,5.52
2023-02-20T03:21:22.443Z,5.54
2023-02-20T03:26:30.105Z,5.53
2023-02-20T03:31:43.652Z,5.53
2023-02-20T03:37:11.783Z,5.55
2023-02-20T03:42:34.007Z,5.57
2023-02-20T03:47:47.915Z,5.55
2023-02-20T03:52:50.549Z,5.55
2023-02-20T03:57:58.550Z,5.56
2023-02-20T04:03:03.704Z,5.54
2023-02-20T04:08:35.673Z,5.57
2023-02-20T04:13:39.655Z,5.59
2023-02-20T04:18:41.496Z,5.56
2023-02-20T04:23:45.387Z,5.55
2023-02-20T04:28:48.057Z,5.54
2023-02-20T04:33:51.350Z,5.56
2023-02-20T04:38:57.830Z,5.58
2023-02-20T04:44:22.278Z,5.65
2023-02-20T04:49:26.102Z,5.74
2023-02-20T04:54:30.555Z,5.85
2023-02-20T04:59:32.410Z,5.88
2023-02-20T05:04:35.312Z,5.90
2023-02-20T05:09:36.992Z,5.99
2023-02-20T05:14:38.651Z,6.05
2023-02-20T05:19:40.271Z,6.04
2023-02-20T05:24:44.290Z,6.17
2023-02-20T05:29:50.917Z,6.15
2023-02-20T05:34:52.903Z,6.24
2023-02-20T05:39:54.707Z,6.26
2023-02-20T05:44:56.319Z,6.30
2023-02-20T05:49:57.927Z,6.23
2023-02-20T05:54:59.529Z,6.12
2023-02-20T06:00:01.151Z,6.06
2023-02-20T06:05:02.790Z,6.08
2023-02-20T06:10:05.178Z,6.04
2023-02-20T06:15:07.060Z,6.13
2023-02-20T06:20:09.013Z,6.21
2023-02-20T06:25:11.532Z,6.36
2023-02-20T06:30:13.849Z,6.48
2023-02-20T06:35:15.901Z,6.58
2023-02-20T06:40:17.543Z,6.65
2023-02-20T06:45:19.301Z,6.70
2023-02-20T06:50:21.203Z,6.73
2023-02-20T06:55:22.830Z,6.74
2023-02-20T07:00:24.656Z,6.80
2023-02-20T07:05:26.254Z,6.82
2023-02-20T07:10:27.875Z,6.88
2023-02-20T07:15:29.557Z,6.92
2023-02-20T07:20:31.177Z,7.06
2023-02-20T07:25:32.848Z,7.10
2023-02-20T07:30:34.784Z,7.20
2023-02-20T07:35:36.713Z,7.28
2023-02-20T07:40:40.570Z,7.33
2023-02-20T07:45:42.606Z,7.43
2023-02-20T07:50:44.859Z,7.56
2023-02-20T07:55:46.495Z,7.65
2023-02-20T08:00:50.930Z,7.77
2023-02-20T08:05:52.622Z,7.78
2023-02-20T08:11:03.681Z,7.83
2023-02-20T08:16:10.851Z,7.79
2023-02-20T08:21:12.654Z,7.86
2023-02-20T08:26:14.609Z,8.11
2023-02-20T08:31:30.792Z,8.19
2023-02-20T08:36:33.704Z,8.29
2023-02-20T08:41:35.348Z,8.54
2023-02-20T08:46:36.986Z,8.63
2023-02-20T08:51:39.075Z,8.66
2023-02-20T08:56:41.758Z,8.74
2023-02-20T09:01:44.109Z,8.90
2023-02-20T09:06:45.816Z,9.11
2023-02-20T09:11:47.434Z,9.25
2023-02-20T09:16:52.220Z,9.36
2023-02-20T09:21:53.868Z,9.39
2023-02-20T09:26:56.948Z,9.52
2023-02-20T09:31:59.377Z,9.61
2023-02-20T09:37:01.143Z,9.75
2023-02-20T09:42:11.599Z,9.83
2023-02-20T09:47:40.838Z,9.81
2023-02-20T09:52:46.005Z,9.89
2023-02-20T09:57:49.980Z,10.05
2023-02-20T10:03:02.332Z,10.16
2023-02-20T10:08:04.050Z,10.23
2023-02-20T10:13:43.058Z,10.33
2023-02-20T10:19:17.394Z,10.41
2023-02-20T10:24:28.330Z,10.47
2023-02-20T10:29:39.863Z,10.60
2023-02-20T10:34:44.894Z,10.62
2023-02-20T10:39:55.192Z,10.62
2023-02-20T10:45:04.835Z,10.63
2023-02-20T10:50:11.616Z,10.73
2023-02-20T10:55:24.045Z,10.79
2023-02-20T11:00:33.191Z,10.80
2023-02-20T11:05:39.421Z,10.90
2023-02-20T11:10:41.067Z,10.98
2023-02-20T11:15:43.724Z,10.98
2023-02-20T11:20:49.334Z,10.96
2023-02-20T11:25:51.030Z,11.05
2023-02-20T11:31:02.682Z,11.14
2023-02-20T11:36:15.603Z,11.19
2023-02-20T11:41:29.226Z,11.21
2023-02-20T11:46:30.900Z,11.22
2023-02-20T11:51:38.636Z,11.37
2023-02-20T11:57:18.883Z,11.52
2023-02-20T12:02:27.189Z,11.64
2023-02-20T12:07:53.482Z,11.73
2023-02-20T12:12:55.763Z,11.84
2023-02-20T12:18:22.519Z,11.89
2023-02-20T12:23:45.202Z,12.09
2023-02-20T12:29:02.018Z,12.29
2023-02-20T12:34:03.576Z,12.42
2023-02-20T12:39:05.134Z,12.35
2023-02-20T12:44:29.490Z,12.28
2023-02-20T12:50:01.639Z,12.36
2023-02-20T12:55:21.112Z,12.28
2023-02-20T13:00:28.953Z,12.18
2023-02-20T13:05:30.770Z,12.15
2023-02-20T13:10:34.698Z,12.19
2023-02-20T13:15:48.550Z,12.18
2023-02-20T13:20:54.383Z,12.16
2023-02-20T13:25:56.875Z,12.14
2023-02-20T13:31:09.424Z,12.24
2023-02-20T13:36:39.323Z,12.26
2023-02-20T13:41:56.256Z,12.25
2023-02-20T13:47:02.810Z,12.25
2023-02-20T13:52:38.707Z,12.32
2023-02-20T13:57:54.532Z,12.51
2023-02-20T14:02:56.337Z,12.46
2023-02-20T14:07:59.310Z,12.47
2023-02-20T14:13:03.559Z,12.44
2023-02-20T14:18:15.991Z,12.57
2023-02-20T14:23:20.771Z,12.60
2023-02-20T14:28:22.704Z,12.64
2023-02-20T14:33:28.410Z,12.59
2023-02-20T14:38:37.760Z,12.66
2023-02-20T14:43:39.374Z,12.59
2023-02-20T14:48:41.929Z,12.55
2023-02-20T14:53:45.050Z,12.51
2023-02-20T14:58:47.043Z,12.44
2023-02-20T15:04:01.162Z,12.40
2023-02-20T15:09:19.912Z,12.30
2023-02-20T15:14:26.206Z,12.18
2023-02-20T15:19:38.316Z,12.12
2023-02-20T15:24:40.603Z,12.06
2023-02-20T15:29:44.417Z,11.99
2023-02-20T15:34:54.631Z,11.94
2023-02-20T15:39:56.380Z,11.89
2023-02-20T15:44:58.131Z,11.85
2023-02-20T15:49:59.781Z,11.79
2023-02-20T15:55:01.893Z,11.76
2023-02-20T16:00:04.733Z,11.75
2023-02-20T16:05:06.942Z,11.72
2023-02-20T16:10:09.388Z,11.70
2023-02-20T16:15:19.056Z,11.63
2023-02-20T16:20:26.271Z,11.58
2023-02-20T16:25:27.953Z,11.51
2023-02-20T16:30:34.944Z,11.50
2023-02-20T16:35:36.665Z,11.47
2023-02-20T16:40:38.495Z,11.49
2023-02-20T16:45:43.348Z,11.45
2023-02-20T16:50:48.413Z,11.50
2023-02-20T16:55:51.903Z,11.48
2023-02-20T17:00:57.777Z,11.51
2023-02-20T17:06:00.083Z,11.61
2023-02-20T17:11:01.725Z,11.54
2023-02-20T17:16:03.463Z,11.55
2023-02-20T17:21:05.388Z,11.55
2023-02-20T17:26:09.570Z,11.67
2023-02-20T17:31:12.264Z,11.68
2023-02-20T17:36:14.471Z,11.75
2023-02-20T17:41:17.281Z,11.69
2023-02-20T17:46:20.102Z,11.68
2023-02-20T17:51:21.819Z,11.68
2023-02-20T17:56:23.888Z,11.73
2023-02-20T18:01:27.619Z,11.51
2023-02-20T18:06:29.530Z,11.16
2023-02-20T18:11:32.485Z,10.81
2023-02-20T18:16:34.201Z,10.43
2023-02-20T18:21:38.320Z,10.16
2023-02-20T18:26:40.739Z,9.92
2023-02-20T18:31:42.525Z,9.75
2023-02-20T18:36:44.427Z,9.63
2023-02-20T18:41:55.309Z,9.58
2023-02-20T18:46:57.476Z,9.55
2023-02-20T18:51:59.198Z,9.57
2023-02-20T18:57:02.349Z,9.61
2023-02-20T19:02:06.022Z,9.63
2023-02-20T19:07:08.439Z,9.73
2023-02-20T19:12:11.940Z,9.78
2023-02-20T19:17:13.730Z,9.82
2023-02-20T19:22:15.583Z,9.90
2023-02-20T19:27:17.280Z,9.91
2023-02-20T19:32:19.409Z,9.92
2023-02-20T19:37:21.277Z,9.88
2023-02-20T19:42:23.493Z,9.84
2023-02-20T19:47:25.369Z,9.85
2023-02-20T19:52:27.042Z,9.86
2023-02-20T19:57:28.769Z,9.81
2023-02-20T20:02:30.487Z,9.79
2023-02-20T20:07:32.627Z,9.80
2023-02-20T20:12:46.736Z,9.80
2023-02-20T20:17:57.193Z,9.82
2023-02-20T20:23:04.945Z,9.82
2023-02-20T20:28:09.216Z,9.81
2023-02-20T20:33:10.924Z,9.72
2023-02-20T20:38:12.552Z,9.65
2023-02-20T20:43:15.658Z,9.60
2023-02-20T20:48:17.452Z,9.52
2023-02-20T20:53:19.283Z,9.44
2023-02-20T20:58:20.927Z,9.31
2023-02-20T21:03:24.189Z,9.29
2023-02-20T21:08:26.124Z,9.36
2023-02-20T21:13:27.769Z,9.40
2023-02-20T21:18:29.416Z,9.43
2023-02-20T21:23:31.706Z,9.50
2023-02-20T21:28:33.420Z,9.55
2023-02-20T21:33:35.085Z,9.60
2023-02-20T21:38:36.844Z,9.67
2023-02-20T21:43:57.202Z,9.73
2023-02-20T21:48:58.794Z,9.75
2023-02-20T21:54:00.415Z,9.80
2023-02-20T21:59:03.430Z,9.77
2023-02-20T22:04:07.211Z,9.78
2023-02-20T22:09:27.456Z,9.77
2023-02-20T22:14:48.386Z,9.75
2023-02-20T22:20:08.695Z,9.76
2023-02-20T22:25:28.775Z,9.80
2023-02-20T22:30:50.747Z,9.76
2023-02-20T22:36:11.836Z,9.74
2023-02-20T22:41:37.965Z,9.71
2023-02-20T22:46:58.417Z,9.74
2023-02-20T22:52:18.731Z,9.72
2023-02-20T22:57:38.941Z,9.74
2023-02-20T23:02:59.185Z,9.72
2023-02-20T23:08:19.495Z,9.74
2023-02-20T23:13:39.685Z,9.75
2023-02-20T23:18:59.987Z,9.73
2023-02-20T23:24:20.577Z,9.73
2023-02-20T23:29:41.177Z,9.72
2023-02-20T23:35:01.515Z,9.68
2023-02-20T23:40:34.550Z,9.60
2023-02-20T23:45:56.757Z,9.57
2023-02-20T23:51:18.042Z,9.54
2023-02-20T23:56:38.261Z,9.55
